Share

Goodland, KS

City of Gld Backyard Station (KKSGOODL6) Elev 3711 ft | 39.34 °N, 101.71 °W | Change Station

Current weather conditions updated 5 minutes ago

Clear
Clear
50.5 °F
Feels Like 50.5 °F
N
2.7
Wind Variable Wind from East
Sunrise 6:02 AM
Sunset 7:29 PM
Moon Waning Gibbous

Today is forecast to be Cooler than yesterday. Slight chance of a thunderstorm.

Pressure 29.94 in
Visibility 9.0 miles
Clouds Clear
Dew Point 47 °F
Humidity 88%
Rainfall 0.00 in
Snow Depth Not available.
UV 0 out of 16
Pollen 11.00 out of 12
Air Quality Not available.
Flu Activity No Activity
METAR KGLD 200653Z AUTO 11007KT 9SM CLR 08/07 A3001 RMK AO2 SLP138 T00830072 402220083

More Conditions Fewer Conditions

Pressure 29.94 in
Visibility 9.0 miles
Clouds Clear
Dew Point 47 °F
Humidity 88%
Rainfall 0.00 in
Snow Depth Not available.
UV 0 out of 16
Pollen 11.00 out of 12
Air Quality Not available.
Flu Activity No Activity
METAR KGLD 200653Z AUTO 11007KT 9SM CLR 08/07 A3001 RMK AO2 SLP138 T00830072 402220083

More Conditions Fewer Conditions

10-Day Weather Forecast

Almanac

Astronomy

Apr. 20, 2014 Rise Set
Actual Time 6:02 AM MDT 7:29 PM MDT
Civil Twilight 5:34 AM MDT 7:57 PM MDT
Nautical Twilight 5:00 AM MDT 8:31 PM MDT
Astronomical Twilight 4:25 AM MDT 9:07 PM MDT
Moon 12:10 AM MDT 10:25 AM MDT
Length of Visible Light 14h 23m
Length of Day
13h 26m
Tomorrow will be 2m 22s longer.
Waning Gibbous, 72% of the Moon is Illuminated
Today
Waning Gibbous
Apr 22
Last Quarter
Apr 29
New
May 6
First Quarter
May 14
Full

Today's Extremes

State Highs State Lows

Community

  • Sunny day at the coast-Cape Arago Lighthouse
    Sunny day at the coast-Cape Arago Lighthouse
  • Cherry Blossoms
    Cherry Blossoms
  • White-Crowned Sparrow
    White-Crowned Sparrow
  • New Day
    New Day
  • Happy Easter!
    Happy Easter!

WunderPhotos

Upload Photos

1,703,084 photos uploaded!

WunderBlogs® & News

Nearby

Snow Depth

Station Depth Elevation
No new snow has been reported.

Coastal Water Temperatures

Place Temperature
No Stations Reporting

Earthquake Activity

City Distance Mag. Time & Date
No recent earthquake activity has been reported nearby.
Minimum magnitude displayed is 2.5.

Nearby Weather Stations

Station Location Temp. Windchill Dew Point Humidity Wind Precip. Elev Updated Type
City of Gld Backyard Station, Goodland, KS 50.5 °F - 47 °F 88% East  at  2.7 mph - / hr 3711 ft 1:47 AM MDT Normal
Beaver Creek Weather, Goodland, KS 49.1 °F 49 °F 45 °F 87% ENE  at  0.0 mph 0.00 in / hr 3450 ft 1:53 AM MDT Rapid Fire

Show More Stations Show Fewer Stations

What do you think?

We're not finished. Please let us know what you like, what you don't like, and what you are still missing.